sensor_id;sensor_type;location;lat;lon;timestamp;P1;durP1;ratioP1;P2;durP2;ratioP2
19257;SDS011;9763;48.780;9.212;2022-10-16T00:01:05;1.30;;;1.20;;
19257;SDS011;9763;48.780;9.212;2022-10-16T00:04:30;1.30;;;1.00;;
19257;SDS011;9763;48.780;9.212;2022-10-16T00:07:54;1.50;;;1.10;;
19257;SDS011;9763;48.780;9.212;2022-10-16T00:11:19;1.50;;;1.00;;
19257;SDS011;9763;48.780;9.212;2022-10-16T00:14:47;1.70;;;1.10;;
19257;SDS011;9763;48.780;9.212;2022-10-16T00:18:12;2.03;;;0.93;;
19257;SDS011;9763;48.780;9.212;2022-10-16T00:21:37;1.60;;;0.80;;
19257;SDS011;9763;48.780;9.212;2022-10-16T00:25:02;1.40;;;1.10;;
19257;SDS011;9763;48.780;9.212;2022-10-16T00:28:27;1.33;;;0.90;;
19257;SDS011;9763;48.780;9.212;2022-10-16T00:31:53;1.20;;;0.90;;
19257;SDS011;9763;48.780;9.212;2022-10-16T00:35:17;2.83;;;1.00;;
19257;SDS011;9763;48.780;9.212;2022-10-16T00:38:41;1.50;;;0.90;;
19257;SDS011;9763;48.780;9.212;2022-10-16T00:42:05;1.20;;;0.93;;
19257;SDS011;9763;48.780;9.212;2022-10-16T00:45:28;1.20;;;1.00;;
19257;SDS011;9763;48.780;9.212;2022-10-16T00:48:55;1.40;;;0.90;;
19257;SDS011;9763;48.780;9.212;2022-10-16T00:52:21;1.23;;;0.90;;
19257;SDS011;9763;48.780;9.212;2022-10-16T00:55:46;1.40;;;0.90;;
19257;SDS011;9763;48.780;9.212;2022-10-16T00:59:11;1.40;;;0.90;;
19257;SDS011;9763;48.780;9.212;2022-10-16T01:02:38;1.20;;;0.87;;
19257;SDS011;9763;48.780;9.212;2022-10-16T01:06:09;1.30;;;1.03;;
19257;SDS011;9763;48.780;9.212;2022-10-16T01:09:47;1.30;;;0.93;;
19257;SDS011;9763;48.780;9.212;2022-10-16T01:13:21;1.40;;;0.90;;
19257;SDS011;9763;48.780;9.212;2022-10-16T01:16:53;1.83;;;1.17;;
19257;SDS011;9763;48.780;9.212;2022-10-16T01:20:23;1.70;;;1.00;;
19257;SDS011;9763;48.780;9.212;2022-10-16T01:23:59;1.20;;;1.00;;
19257;SDS011;9763;48.780;9.212;2022-10-16T01:27:30;1.23;;;1.00;;
19257;SDS011;9763;48.780;9.212;2022-10-16T01:30:58;1.63;;;1.03;;
19257;SDS011;9763;48.780;9.212;2022-10-16T01:34:25;1.13;;;0.80;;
19257;SDS011;9763;48.780;9.212;2022-10-16T01:37:55;1.60;;;1.17;;
19257;SDS011;9763;48.780;9.212;2022-10-16T01:41:26;1.27;;;0.90;;
19257;SDS011;9763;48.780;9.212;2022-10-16T01:44:59;1.20;;;1.00;;
19257;SDS011;9763;48.780;9.212;2022-10-16T01:48:24;1.20;;;0.90;;
19257;SDS011;9763;48.780;9.212;2022-10-16T01:51:49;1.70;;;1.20;;
19257;SDS011;9763;48.780;9.212;2022-10-16T01:55:17;1.40;;;1.00;;
19257;SDS011;9763;48.780;9.212;2022-10-16T01:58:47;1.20;;;0.97;;
19257;SDS011;9763;48.780;9.212;2022-10-16T02:02:17;1.40;;;1.00;;
19257;SDS011;9763;48.780;9.212;2022-10-16T02:05:44;1.37;;;0.90;;
19257;SDS011;9763;48.780;9.212;2022-10-16T02:09:13;1.40;;;1.00;;
19257;SDS011;9763;48.780;9.212;2022-10-16T02:12:39;1.30;;;1.10;;
19257;SDS011;9763;48.780;9.212;2022-10-16T02:16:05;2.43;;;0.80;;
19257;SDS011;9763;48.780;9.212;2022-10-16T02:19:31;2.00;;;1.00;;
19257;SDS011;9763;48.780;9.212;2022-10-16T02:22:55;1.20;;;0.90;;
19257;SDS011;9763;48.780;9.212;2022-10-16T02:26:22;1.23;;;0.90;;
19257;SDS011;9763;48.780;9.212;2022-10-16T02:29:52;1.23;;;0.90;;
19257;SDS011;9763;48.780;9.212;2022-10-16T02:33:21;1.43;;;1.13;;
19257;SDS011;9763;48.780;9.212;2022-10-16T02:36:48;1.17;;;0.87;;
19257;SDS011;9763;48.780;9.212;2022-10-16T02:40:15;1.30;;;0.97;;
19257;SDS011;9763;48.780;9.212;2022-10-16T02:43:45;1.67;;;1.00;;
19257;SDS011;9763;48.780;9.212;2022-10-16T02:47:10;1.30;;;1.00;;
19257;SDS011;9763;48.780;9.212;2022-10-16T02:50:34;1.20;;;0.90;;
19257;SDS011;9763;48.780;9.212;2022-10-16T02:53:59;1.40;;;1.00;;
19257;SDS011;9763;48.780;9.212;2022-10-16T02:57:23;1.63;;;1.00;;
19257;SDS011;9763;48.780;9.212;2022-10-16T03:00:48;2.77;;;1.10;;
19257;SDS011;9763;48.780;9.212;2022-10-16T03:04:11;1.20;;;0.80;;
19257;SDS011;9763;48.780;9.212;2022-10-16T03:07:35;1.30;;;1.00;;
19257;SDS011;9763;48.780;9.212;2022-10-16T03:11:00;2.23;;;1.30;;
19257;SDS011;9763;48.780;9.212;2022-10-16T03:14:24;1.30;;;0.90;;
19257;SDS011;9763;48.780;9.212;2022-10-16T03:17:53;1.50;;;1.33;;
19257;SDS011;9763;48.780;9.212;2022-10-16T03:21:17;1.73;;;1.00;;
19257;SDS011;9763;48.780;9.212;2022-10-16T03:24:40;1.50;;;1.03;;
19257;SDS011;9763;48.780;9.212;2022-10-16T03:28:06;4.13;;;1.10;;
19257;SDS011;9763;48.780;9.212;2022-10-16T03:31:29;1.40;;;1.03;;
19257;SDS011;9763;48.780;9.212;2022-10-16T03:34:53;1.40;;;1.17;;
19257;SDS011;9763;48.780;9.212;2022-10-16T03:38:18;1.33;;;1.10;;
19257;SDS011;9763;48.780;9.212;2022-10-16T03:41:42;2.77;;;1.00;;
19257;SDS011;9763;48.780;9.212;2022-10-16T03:45:09;1.30;;;0.97;;
19257;SDS011;9763;48.780;9.212;2022-10-16T03:48:33;1.23;;;1.00;;
19257;SDS011;9763;48.780;9.212;2022-10-16T03:51:57;1.30;;;0.80;;
19257;SDS011;9763;48.780;9.212;2022-10-16T03:55:21;1.20;;;0.90;;
19257;SDS011;9763;48.780;9.212;2022-10-16T03:58:44;1.27;;;1.00;;
19257;SDS011;9763;48.780;9.212;2022-10-16T04:02:09;1.33;;;0.90;;
19257;SDS011;9763;48.780;9.212;2022-10-16T04:05:33;1.50;;;0.97;;
19257;SDS011;9763;48.780;9.212;2022-10-16T04:08:57;2.40;;;1.00;;
19257;SDS011;9763;48.780;9.212;2022-10-16T04:12:21;1.20;;;0.80;;
19257;SDS011;9763;48.780;9.212;2022-10-16T04:15:45;1.93;;;0.80;;
19257;SDS011;9763;48.780;9.212;2022-10-16T04:19:10;1.30;;;0.93;;
19257;SDS011;9763;48.780;9.212;2022-10-16T04:22:34;2.07;;;0.80;;
19257;SDS011;9763;48.780;9.212;2022-10-16T04:25:59;1.30;;;0.90;;
19257;SDS011;9763;48.780;9.212;2022-10-16T04:29:23;1.30;;;0.90;;
19257;SDS011;9763;48.780;9.212;2022-10-16T04:32:47;5.73;;;1.00;;
19257;SDS011;9763;48.780;9.212;2022-10-16T04:36:13;1.40;;;0.70;;
19257;SDS011;9763;48.780;9.212;2022-10-16T04:39:36;1.20;;;0.93;;
19257;SDS011;9763;48.780;9.212;2022-10-16T04:43:00;1.23;;;1.00;;
19257;SDS011;9763;48.780;9.212;2022-10-16T04:46:24;1.60;;;1.10;;
19257;SDS011;9763;48.780;9.212;2022-10-16T04:49:48;1.20;;;0.80;;
19257;SDS011;9763;48.780;9.212;2022-10-16T04:53:13;1.30;;;1.07;;
19257;SDS011;9763;48.780;9.212;2022-10-16T04:56:36;1.20;;;0.90;;
19257;SDS011;9763;48.780;9.212;2022-10-16T05:00:08;1.40;;;1.00;;
19257;SDS011;9763;48.780;9.212;2022-10-16T05:03:32;1.30;;;0.90;;
19257;SDS011;9763;48.780;9.212;2022-10-16T05:06:56;1.93;;;0.90;;
19257;SDS011;9763;48.780;9.212;2022-10-16T05:10:22;1.17;;;0.77;;
19257;SDS011;9763;48.780;9.212;2022-10-16T05:13:46;1.30;;;0.97;;
19257;SDS011;9763;48.780;9.212;2022-10-16T05:17:14;1.20;;;0.90;;
19257;SDS011;9763;48.780;9.212;2022-10-16T05:20:37;2.60;;;1.00;;
19257;SDS011;9763;48.780;9.212;2022-10-16T05:24:02;1.40;;;0.90;;
19257;SDS011;9763;48.780;9.212;2022-10-16T05:27:27;2.90;;;1.00;;
19257;SDS011;9763;48.780;9.212;2022-10-16T05:30:51;1.10;;;0.77;;
19257;SDS011;9763;48.780;9.212;2022-10-16T05:34:15;1.10;;;0.80;;
19257;SDS011;9763;48.780;9.212;2022-10-16T05:37:39;2.03;;;0.80;;
19257;SDS011;9763;48.780;9.212;2022-10-16T05:41:03;1.20;;;0.90;;
19257;SDS011;9763;48.780;9.212;2022-10-16T05:44:28;1.40;;;0.90;;
19257;SDS011;9763;48.780;9.212;2022-10-16T05:47:52;1.20;;;0.80;;
19257;SDS011;9763;48.780;9.212;2022-10-16T05:51:16;1.20;;;0.93;;
19257;SDS011;9763;48.780;9.212;2022-10-16T05:54:40;2.03;;;0.90;;
19257;SDS011;9763;48.780;9.212;2022-10-16T05:58:04;1.50;;;1.10;;
19257;SDS011;9763;48.780;9.212;2022-10-16T06:01:29;1.80;;;1.03;;
19257;SDS011;9763;48.780;9.212;2022-10-16T06:04:53;1.87;;;1.13;;
19257;SDS011;9763;48.780;9.212;2022-10-16T06:08:17;1.20;;;0.80;;
19257;SDS011;9763;48.780;9.212;2022-10-16T06:11:42;2.53;;;0.83;;
19257;SDS011;9763;48.780;9.212;2022-10-16T06:15:06;1.20;;;0.90;;
19257;SDS011;9763;48.780;9.212;2022-10-16T06:18:31;1.20;;;0.80;;
19257;SDS011;9763;48.780;9.212;2022-10-16T06:21:55;1.20;;;0.80;;
19257;SDS011;9763;48.780;9.212;2022-10-16T06:25:19;1.33;;;0.93;;
19257;SDS011;9763;48.780;9.212;2022-10-16T06:28:43;1.57;;;1.00;;
19257;SDS011;9763;48.780;9.212;2022-10-16T06:32:08;1.43;;;1.17;;
19257;SDS011;9763;48.780;9.212;2022-10-16T06:35:34;3.97;;;1.10;;
19257;SDS011;9763;48.780;9.212;2022-10-16T06:38:57;1.20;;;0.80;;
19257;SDS011;9763;48.780;9.212;2022-10-16T06:42:21;1.80;;;1.00;;
19257;SDS011;9763;48.780;9.212;2022-10-16T06:45:49;1.97;;;1.40;;
19257;SDS011;9763;48.780;9.212;2022-10-16T06:49:14;2.10;;;1.30;;
19257;SDS011;9763;48.780;9.212;2022-10-16T06:52:44;1.30;;;0.90;;
19257;SDS011;9763;48.780;9.212;2022-10-16T06:56:08;1.40;;;1.13;;
19257;SDS011;9763;48.780;9.212;2022-10-16T06:59:33;1.37;;;1.03;;
19257;SDS011;9763;48.780;9.212;2022-10-16T07:02:57;3.73;;;1.23;;
19257;SDS011;9763;48.780;9.212;2022-10-16T07:06:21;1.30;;;1.10;;
19257;SDS011;9763;48.780;9.212;2022-10-16T07:09:48;1.53;;;1.10;;
19257;SDS011;9763;48.780;9.212;2022-10-16T07:13:12;1.43;;;1.10;;
19257;SDS011;9763;48.780;9.212;2022-10-16T07:16:36;1.30;;;1.00;;
19257;SDS011;9763;48.780;9.212;2022-10-16T07:20:00;1.20;;;0.90;;
19257;SDS011;9763;48.780;9.212;2022-10-16T07:23:23;1.20;;;0.80;;
19257;SDS011;9763;48.780;9.212;2022-10-16T07:26:49;1.50;;;0.90;;
19257;SDS011;9763;48.780;9.212;2022-10-16T07:30:13;2.33;;;1.20;;
19257;SDS011;9763;48.780;9.212;2022-10-16T07:33:37;1.57;;;1.00;;
19257;SDS011;9763;48.780;9.212;2022-10-16T07:37:03;1.40;;;1.00;;
19257;SDS011;9763;48.780;9.212;2022-10-16T07:40:27;1.50;;;0.97;;
19257;SDS011;9763;48.780;9.212;2022-10-16T07:43:52;1.40;;;1.00;;
19257;SDS011;9763;48.780;9.212;2022-10-16T07:47:18;2.10;;;1.20;;
19257;SDS011;9763;48.780;9.212;2022-10-16T07:50:42;2.50;;;1.20;;
19257;SDS011;9763;48.780;9.212;2022-10-16T07:54:07;1.73;;;1.20;;
19257;SDS011;9763;48.780;9.212;2022-10-16T07:57:32;1.40;;;1.10;;
19257;SDS011;9763;48.780;9.212;2022-10-16T08:00:57;2.17;;;1.27;;
19257;SDS011;9763;48.780;9.212;2022-10-16T08:04:25;1.50;;;1.00;;
19257;SDS011;9763;48.780;9.212;2022-10-16T08:07:49;1.50;;;1.10;;
19257;SDS011;9763;48.780;9.212;2022-10-16T08:11:13;1.57;;;1.03;;
19257;SDS011;9763;48.780;9.212;2022-10-16T08:14:37;1.73;;;1.10;;
19257;SDS011;9763;48.780;9.212;2022-10-16T08:18:08;1.90;;;1.40;;
19257;SDS011;9763;48.780;9.212;2022-10-16T08:21:34;1.43;;;1.10;;
19257;SDS011;9763;48.780;9.212;2022-10-16T08:24:58;1.47;;;1.10;;
19257;SDS011;9763;48.780;9.212;2022-10-16T08:28:22;1.60;;;1.10;;
19257;SDS011;9763;48.780;9.212;2022-10-16T08:31:46;2.13;;;1.40;;
19257;SDS011;9763;48.780;9.212;2022-10-16T08:35:12;1.97;;;1.30;;
19257;SDS011;9763;48.780;9.212;2022-10-16T08:38:37;1.70;;;1.00;;
19257;SDS011;9763;48.780;9.212;2022-10-16T08:42:12;1.30;;;1.17;;
19257;SDS011;9763;48.780;9.212;2022-10-16T08:46:00;2.07;;;1.00;;
19257;SDS011;9763;48.780;9.212;2022-10-16T08:49:34;1.40;;;1.30;;
19257;SDS011;9763;48.780;9.212;2022-10-16T08:53:01;4.60;;;1.10;;
19257;SDS011;9763;48.780;9.212;2022-10-16T08:56:27;1.40;;;0.90;;
19257;SDS011;9763;48.780;9.212;2022-10-16T08:59:52;1.50;;;1.30;;
19257;SDS011;9763;48.780;9.212;2022-10-16T09:03:23;1.20;;;0.90;;
19257;SDS011;9763;48.780;9.212;2022-10-16T09:06:59;1.43;;;1.17;;
19257;SDS011;9763;48.780;9.212;2022-10-16T09:10:33;2.17;;;1.10;;
19257;SDS011;9763;48.780;9.212;2022-10-16T09:14:11;2.27;;;0.97;;
19257;SDS011;9763;48.780;9.212;2022-10-16T09:17:49;2.70;;;1.00;;
19257;SDS011;9763;48.780;9.212;2022-10-16T09:21:21;1.40;;;1.13;;
19257;SDS011;9763;48.780;9.212;2022-10-16T09:24:48;1.37;;;1.20;;
19257;SDS011;9763;48.780;9.212;2022-10-16T09:28:14;1.47;;;1.07;;
19257;SDS011;9763;48.780;9.212;2022-10-16T09:31:39;1.73;;;1.23;;
19257;SDS011;9763;48.780;9.212;2022-10-16T09:35:04;1.43;;;0.97;;
19257;SDS011;9763;48.780;9.212;2022-10-16T09:38:36;1.60;;;1.33;;
19257;SDS011;9763;48.780;9.212;2022-10-16T09:42:00;1.70;;;1.20;;
19257;SDS011;9763;48.780;9.212;2022-10-16T09:45:28;1.50;;;1.00;;
19257;SDS011;9763;48.780;9.212;2022-10-16T09:48:53;1.30;;;0.90;;
19257;SDS011;9763;48.780;9.212;2022-10-16T09:52:19;1.50;;;1.17;;
19257;SDS011;9763;48.780;9.212;2022-10-16T09:55:50;1.70;;;1.10;;
19257;SDS011;9763;48.780;9.212;2022-10-16T09:59:15;1.70;;;1.10;;
19257;SDS011;9763;48.780;9.212;2022-10-16T10:02:42;1.67;;;1.10;;
19257;SDS011;9763;48.780;9.212;2022-10-16T10:06:13;2.37;;;1.27;;
19257;SDS011;9763;48.780;9.212;2022-10-16T10:09:44;2.50;;;1.20;;
19257;SDS011;9763;48.780;9.212;2022-10-16T10:13:16;1.60;;;1.00;;
19257;SDS011;9763;48.780;9.212;2022-10-16T10:16:41;2.80;;;1.40;;
19257;SDS011;9763;48.780;9.212;2022-10-16T10:20:15;1.60;;;1.10;;
19257;SDS011;9763;48.780;9.212;2022-10-16T10:23:54;2.47;;;0.90;;
19257;SDS011;9763;48.780;9.212;2022-10-16T10:27:19;1.60;;;1.20;;
19257;SDS011;9763;48.780;9.212;2022-10-16T10:30:48;1.83;;;1.07;;
19257;SDS011;9763;48.780;9.212;2022-10-16T10:34:23;1.57;;;1.13;;
19257;SDS011;9763;48.780;9.212;2022-10-16T10:38:02;1.40;;;0.90;;
19257;SDS011;9763;48.780;9.212;2022-10-16T10:41:49;1.60;;;1.30;;
19257;SDS011;9763;48.780;9.212;2022-10-16T10:45:28;1.40;;;0.90;;
19257;SDS011;9763;48.780;9.212;2022-10-16T10:49:08;4.90;;;1.00;;
19257;SDS011;9763;48.780;9.212;2022-10-16T10:52:48;1.60;;;1.00;;
19257;SDS011;9763;48.780;9.212;2022-10-16T10:56:26;1.53;;;1.10;;
19257;SDS011;9763;48.780;9.212;2022-10-16T11:00:09;1.50;;;1.10;;
19257;SDS011;9763;48.780;9.212;2022-10-16T11:03:53;1.40;;;1.00;;
19257;SDS011;9763;48.780;9.212;2022-10-16T11:07:45;1.40;;;0.90;;
19257;SDS011;9763;48.780;9.212;2022-10-16T11:11:14;1.70;;;1.10;;
19257;SDS011;9763;48.780;9.212;2022-10-16T11:14:46;1.50;;;1.13;;
19257;SDS011;9763;48.780;9.212;2022-10-16T11:18:19;1.37;;;0.90;;
19257;SDS011;9763;48.780;9.212;2022-10-16T11:21:46;2.60;;;1.10;;
19257;SDS011;9763;48.780;9.212;2022-10-16T11:25:18;2.37;;;1.10;;
19257;SDS011;9763;48.780;9.212;2022-10-16T11:28:47;1.50;;;1.20;;
19257;SDS011;9763;48.780;9.212;2022-10-16T11:32:16;1.50;;;1.00;;
19257;SDS011;9763;48.780;9.212;2022-10-16T11:35:46;2.63;;;1.00;;
19257;SDS011;9763;48.780;9.212;2022-10-16T11:39:20;1.50;;;1.10;;
19257;SDS011;9763;48.780;9.212;2022-10-16T11:42:48;1.60;;;0.97;;
19257;SDS011;9763;48.780;9.212;2022-10-16T11:46:17;2.43;;;0.87;;
19257;SDS011;9763;48.780;9.212;2022-10-16T11:49:47;1.40;;;0.90;;
19257;SDS011;9763;48.780;9.212;2022-10-16T11:53:16;1.50;;;1.00;;
19257;SDS011;9763;48.780;9.212;2022-10-16T11:56:46;1.40;;;1.00;;
19257;SDS011;9763;48.780;9.212;2022-10-16T12:00:17;1.50;;;0.90;;
19257;SDS011;9763;48.780;9.212;2022-10-16T12:03:46;1.50;;;0.97;;
19257;SDS011;9763;48.780;9.212;2022-10-16T12:07:21;2.17;;;0.90;;
19257;SDS011;9763;48.780;9.212;2022-10-16T12:10:50;1.40;;;1.00;;
19257;SDS011;9763;48.780;9.212;2022-10-16T12:14:19;1.40;;;0.93;;
19257;SDS011;9763;48.780;9.212;2022-10-16T12:18:03;1.47;;;0.93;;
19257;SDS011;9763;48.780;9.212;2022-10-16T12:21:42;2.53;;;1.00;;
19257;SDS011;9763;48.780;9.212;2022-10-16T12:25:18;1.37;;;1.00;;
19257;SDS011;9763;48.780;9.212;2022-10-16T12:28:43;3.20;;;1.20;;
19257;SDS011;9763;48.780;9.212;2022-10-16T12:32:21;1.30;;;0.90;;
19257;SDS011;9763;48.780;9.212;2022-10-16T12:36:09;1.30;;;0.87;;
19257;SDS011;9763;48.780;9.212;2022-10-16T12:39:37;4.63;;;1.00;;
19257;SDS011;9763;48.780;9.212;2022-10-16T12:43:12;1.90;;;1.07;;
19257;SDS011;9763;48.780;9.212;2022-10-16T12:46:50;1.53;;;1.00;;
19257;SDS011;9763;48.780;9.212;2022-10-16T12:50:27;1.40;;;1.00;;
19257;SDS011;9763;48.780;9.212;2022-10-16T12:54:00;1.80;;;1.10;;
19257;SDS011;9763;48.780;9.212;2022-10-16T12:57:34;1.40;;;0.93;;
19257;SDS011;9763;48.780;9.212;2022-10-16T13:01:12;2.27;;;1.40;;
19257;SDS011;9763;48.780;9.212;2022-10-16T13:04:55;1.30;;;0.80;;
19257;SDS011;9763;48.780;9.212;2022-10-16T13:08:41;1.60;;;1.03;;
19257;SDS011;9763;48.780;9.212;2022-10-16T13:12:31;1.40;;;0.83;;
19257;SDS011;9763;48.780;9.212;2022-10-16T13:16:16;1.63;;;1.00;;
19257;SDS011;9763;48.780;9.212;2022-10-16T13:19:48;1.40;;;0.93;;
19257;SDS011;9763;48.780;9.212;2022-10-16T13:23:20;1.40;;;1.00;;
19257;SDS011;9763;48.780;9.212;2022-10-16T13:26:49;2.30;;;1.30;;
19257;SDS011;9763;48.780;9.212;2022-10-16T13:30:20;1.47;;;0.83;;
19257;SDS011;9763;48.780;9.212;2022-10-16T13:33:53;2.90;;;1.10;;
19257;SDS011;9763;48.780;9.212;2022-10-16T13:37:21;1.30;;;0.90;;
19257;SDS011;9763;48.780;9.212;2022-10-16T13:40:48;1.47;;;1.10;;
19257;SDS011;9763;48.780;9.212;2022-10-16T13:44:17;1.37;;;1.00;;
19257;SDS011;9763;48.780;9.212;2022-10-16T13:47:43;1.40;;;1.10;;
19257;SDS011;9763;48.780;9.212;2022-10-16T13:51:12;1.37;;;0.93;;
19257;SDS011;9763;48.780;9.212;2022-10-16T13:54:37;2.90;;;1.10;;
19257;SDS011;9763;48.780;9.212;2022-10-16T13:58:07;1.80;;;1.30;;
19257;SDS011;9763;48.780;9.212;2022-10-16T14:01:31;1.50;;;1.13;;
19257;SDS011;9763;48.780;9.212;2022-10-16T14:05:02;1.53;;;1.10;;
19257;SDS011;9763;48.780;9.212;2022-10-16T14:08:32;2.87;;;1.43;;
19257;SDS011;9763;48.780;9.212;2022-10-16T14:11:57;3.00;;;1.80;;
19257;SDS011;9763;48.780;9.212;2022-10-16T14:15:23;1.97;;;1.83;;
19257;SDS011;9763;48.780;9.212;2022-10-16T14:18:50;2.00;;;1.80;;
19257;SDS011;9763;48.780;9.212;2022-10-16T14:22:30;2.07;;;1.50;;
19257;SDS011;9763;48.780;9.212;2022-10-16T14:26:06;1.40;;;1.00;;
19257;SDS011;9763;48.780;9.212;2022-10-16T14:29:37;3.47;;;2.50;;
19257;SDS011;9763;48.780;9.212;2022-10-16T14:33:02;2.47;;;2.27;;
19257;SDS011;9763;48.780;9.212;2022-10-16T14:36:27;2.73;;;2.53;;
19257;SDS011;9763;48.780;9.212;2022-10-16T14:39:52;2.53;;;2.33;;
19257;SDS011;9763;48.780;9.212;2022-10-16T14:43:19;2.00;;;1.80;;
19257;SDS011;9763;48.780;9.212;2022-10-16T14:46:45;1.90;;;1.80;;
19257;SDS011;9763;48.780;9.212;2022-10-16T14:50:09;1.70;;;1.53;;
19257;SDS011;9763;48.780;9.212;2022-10-16T14:53:33;2.80;;;1.30;;
19257;SDS011;9763;48.780;9.212;2022-10-16T14:56:57;1.40;;;1.20;;
19257;SDS011;9763;48.780;9.212;2022-10-16T15:00:23;1.90;;;1.20;;
19257;SDS011;9763;48.780;9.212;2022-10-16T15:03:47;1.63;;;1.30;;
19257;SDS011;9763;48.780;9.212;2022-10-16T15:07:14;1.93;;;1.17;;
19257;SDS011;9763;48.780;9.212;2022-10-16T15:10:38;2.63;;;1.17;;
19257;SDS011;9763;48.780;9.212;2022-10-16T15:14:04;2.77;;;1.10;;
19257;SDS011;9763;48.780;9.212;2022-10-16T15:17:30;1.80;;;1.40;;
19257;SDS011;9763;48.780;9.212;2022-10-16T15:20:53;1.40;;;1.10;;
19257;SDS011;9763;48.780;9.212;2022-10-16T15:24:17;2.80;;;1.40;;
19257;SDS011;9763;48.780;9.212;2022-10-16T15:27:42;1.70;;;1.30;;
19257;SDS011;9763;48.780;9.212;2022-10-16T15:31:06;1.80;;;1.13;;
19257;SDS011;9763;48.780;9.212;2022-10-16T15:34:31;1.83;;;1.20;;
19257;SDS011;9763;48.780;9.212;2022-10-16T15:37:56;1.37;;;1.10;;
19257;SDS011;9763;48.780;9.212;2022-10-16T15:41:20;1.73;;;1.47;;
19257;SDS011;9763;48.780;9.212;2022-10-16T15:44:44;1.67;;;1.57;;
19257;SDS011;9763;48.780;9.212;2022-10-16T15:48:10;1.80;;;1.30;;
19257;SDS011;9763;48.780;9.212;2022-10-16T15:51:37;1.70;;;1.43;;
19257;SDS011;9763;48.780;9.212;2022-10-16T15:55:02;1.30;;;1.10;;
19257;SDS011;9763;48.780;9.212;2022-10-16T15:58:27;1.50;;;1.30;;
19257;SDS011;9763;48.780;9.212;2022-10-16T16:01:51;5.40;;;1.30;;
19257;SDS011;9763;48.780;9.212;2022-10-16T16:05:15;1.40;;;1.30;;
19257;SDS011;9763;48.780;9.212;2022-10-16T16:08:41;2.30;;;1.00;;
19257;SDS011;9763;48.780;9.212;2022-10-16T16:12:04;1.60;;;1.30;;
19257;SDS011;9763;48.780;9.212;2022-10-16T16:15:28;1.40;;;1.10;;
19257;SDS011;9763;48.780;9.212;2022-10-16T16:18:52;3.30;;;1.10;;
19257;SDS011;9763;48.780;9.212;2022-10-16T16:22:17;2.83;;;1.07;;
19257;SDS011;9763;48.780;9.212;2022-10-16T16:25:42;1.70;;;1.27;;
19257;SDS011;9763;48.780;9.212;2022-10-16T16:29:06;1.37;;;1.10;;
19257;SDS011;9763;48.780;9.212;2022-10-16T16:32:32;1.43;;;1.23;;
19257;SDS011;9763;48.780;9.212;2022-10-16T16:35:56;1.30;;;1.00;;
19257;SDS011;9763;48.780;9.212;2022-10-16T16:39:21;2.33;;;1.10;;
19257;SDS011;9763;48.780;9.212;2022-10-16T16:42:48;1.40;;;1.10;;
19257;SDS011;9763;48.780;9.212;2022-10-16T16:46:12;1.40;;;1.20;;
19257;SDS011;9763;48.780;9.212;2022-10-16T16:49:37;2.00;;;1.10;;
19257;SDS011;9763;48.780;9.212;2022-10-16T16:53:01;2.47;;;0.97;;
19257;SDS011;9763;48.780;9.212;2022-10-16T16:56:25;1.70;;;1.07;;
19257;SDS011;9763;48.780;9.212;2022-10-16T16:59:51;1.60;;;1.30;;
19257;SDS011;9763;48.780;9.212;2022-10-16T17:03:15;1.60;;;1.33;;
19257;SDS011;9763;48.780;9.212;2022-10-16T17:06:38;1.70;;;1.30;;
19257;SDS011;9763;48.780;9.212;2022-10-16T17:10:03;1.70;;;1.20;;
19257;SDS011;9763;48.780;9.212;2022-10-16T17:13:28;1.73;;;1.10;;
19257;SDS011;9763;48.780;9.212;2022-10-16T17:16:54;1.60;;;1.23;;
19257;SDS011;9763;48.780;9.212;2022-10-16T17:20:18;1.50;;;1.20;;
19257;SDS011;9763;48.780;9.212;2022-10-16T17:23:42;1.80;;;1.30;;
19257;SDS011;9763;48.780;9.212;2022-10-16T17:27:05;2.97;;;1.50;;
19257;SDS011;9763;48.780;9.212;2022-10-16T17:30:29;1.80;;;1.40;;
19257;SDS011;9763;48.780;9.212;2022-10-16T17:33:56;1.40;;;1.27;;
19257;SDS011;9763;48.780;9.212;2022-10-16T17:37:20;1.40;;;1.20;;
19257;SDS011;9763;48.780;9.212;2022-10-16T17:40:44;1.80;;;1.30;;
19257;SDS011;9763;48.780;9.212;2022-10-16T17:44:09;2.10;;;1.60;;
19257;SDS011;9763;48.780;9.212;2022-10-16T17:47:40;1.40;;;1.30;;
19257;SDS011;9763;48.780;9.212;2022-10-16T17:51:05;3.70;;;1.30;;
19257;SDS011;9763;48.780;9.212;2022-10-16T17:54:31;2.07;;;1.30;;
19257;SDS011;9763;48.780;9.212;2022-10-16T17:57:56;2.43;;;1.33;;
19257;SDS011;9763;48.780;9.212;2022-10-16T18:01:20;1.50;;;1.10;;
19257;SDS011;9763;48.780;9.212;2022-10-16T18:04:45;1.63;;;1.10;;
19257;SDS011;9763;48.780;9.212;2022-10-16T18:08:11;2.27;;;1.40;;
19257;SDS011;9763;48.780;9.212;2022-10-16T18:11:35;1.50;;;1.30;;
19257;SDS011;9763;48.780;9.212;2022-10-16T18:15:00;1.70;;;1.33;;
19257;SDS011;9763;48.780;9.212;2022-10-16T18:18:24;2.00;;;1.63;;
19257;SDS011;9763;48.780;9.212;2022-10-16T18:21:50;4.90;;;1.30;;
19257;SDS011;9763;48.780;9.212;2022-10-16T18:25:19;1.50;;;1.40;;
19257;SDS011;9763;48.780;9.212;2022-10-16T18:28:43;1.70;;;1.30;;
19257;SDS011;9763;48.780;9.212;2022-10-16T18:32:08;1.50;;;1.27;;
19257;SDS011;9763;48.780;9.212;2022-10-16T18:35:33;3.50;;;1.37;;
19257;SDS011;9763;48.780;9.212;2022-10-16T18:38:58;1.60;;;1.50;;
19257;SDS011;9763;48.780;9.212;2022-10-16T18:42:25;2.83;;;1.50;;
19257;SDS011;9763;48.780;9.212;2022-10-16T18:45:55;1.70;;;1.30;;
19257;SDS011;9763;48.780;9.212;2022-10-16T18:49:19;1.87;;;1.47;;
19257;SDS011;9763;48.780;9.212;2022-10-16T18:52:46;1.40;;;1.10;;
19257;SDS011;9763;48.780;9.212;2022-10-16T18:56:10;2.27;;;1.60;;
19257;SDS011;9763;48.780;9.212;2022-10-16T18:59:37;2.40;;;1.40;;
19257;SDS011;9763;48.780;9.212;2022-10-16T19:03:00;1.40;;;1.30;;
19257;SDS011;9763;48.780;9.212;2022-10-16T19:06:25;1.33;;;1.10;;
19257;SDS011;9763;48.780;9.212;2022-10-16T19:09:50;1.50;;;1.20;;
19257;SDS011;9763;48.780;9.212;2022-10-16T19:13:14;1.60;;;1.40;;
19257;SDS011;9763;48.780;9.212;2022-10-16T19:16:39;1.83;;;1.37;;
19257;SDS011;9763;48.780;9.212;2022-10-16T19:20:04;1.33;;;1.20;;
19257;SDS011;9763;48.780;9.212;2022-10-16T19:23:29;1.43;;;1.27;;
19257;SDS011;9763;48.780;9.212;2022-10-16T19:26:53;1.40;;;1.10;;
19257;SDS011;9763;48.780;9.212;2022-10-16T19:30:18;1.50;;;1.20;;
19257;SDS011;9763;48.780;9.212;2022-10-16T19:33:45;1.60;;;1.10;;
19257;SDS011;9763;48.780;9.212;2022-10-16T19:37:09;1.30;;;1.07;;
19257;SDS011;9763;48.780;9.212;2022-10-16T19:40:33;2.23;;;1.20;;
19257;SDS011;9763;48.780;9.212;2022-10-16T19:43:59;1.40;;;1.20;;
19257;SDS011;9763;48.780;9.212;2022-10-16T19:47:24;1.40;;;1.10;;
19257;SDS011;9763;48.780;9.212;2022-10-16T19:50:49;1.63;;;1.50;;
19257;SDS011;9763;48.780;9.212;2022-10-16T19:54:13;2.93;;;1.30;;
19257;SDS011;9763;48.780;9.212;2022-10-16T19:57:38;1.90;;;1.33;;
19257;SDS011;9763;48.780;9.212;2022-10-16T20:01:01;1.60;;;1.40;;
19257;SDS011;9763;48.780;9.212;2022-10-16T20:04:25;4.50;;;1.60;;
19257;SDS011;9763;48.780;9.212;2022-10-16T20:07:51;1.70;;;1.20;;
19257;SDS011;9763;48.780;9.212;2022-10-16T20:11:15;3.40;;;1.50;;
19257;SDS011;9763;48.780;9.212;2022-10-16T20:14:40;5.00;;;2.03;;
19257;SDS011;9763;48.780;9.212;2022-10-16T20:18:04;1.33;;;1.17;;
19257;SDS011;9763;48.780;9.212;2022-10-16T20:21:29;1.60;;;1.40;;
19257;SDS011;9763;48.780;9.212;2022-10-16T20:24:55;1.50;;;1.40;;
19257;SDS011;9763;48.780;9.212;2022-10-16T20:28:20;1.73;;;1.63;;
19257;SDS011;9763;48.780;9.212;2022-10-16T20:31:44;2.87;;;1.40;;
19257;SDS011;9763;48.780;9.212;2022-10-16T20:35:08;1.93;;;1.57;;
19257;SDS011;9763;48.780;9.212;2022-10-16T20:38:32;1.63;;;1.47;;
19257;SDS011;9763;48.780;9.212;2022-10-16T20:42:00;2.57;;;1.37;;
19257;SDS011;9763;48.780;9.212;2022-10-16T20:45:23;1.47;;;1.20;;
19257;SDS011;9763;48.780;9.212;2022-10-16T20:48:47;2.43;;;1.33;;
19257;SDS011;9763;48.780;9.212;2022-10-16T20:52:12;1.60;;;1.50;;
19257;SDS011;9763;48.780;9.212;2022-10-16T20:55:36;4.03;;;1.80;;
19257;SDS011;9763;48.780;9.212;2022-10-16T20:59:01;2.67;;;1.50;;
19257;SDS011;9763;48.780;9.212;2022-10-16T21:02:25;1.60;;;1.40;;
19257;SDS011;9763;48.780;9.212;2022-10-16T21:05:49;1.60;;;1.30;;